Time;durP1;ratioP1;P1;durP2;ratioP2;P2;SDS_P1;SDS_P2;PMS_P1;PMS_P2;Temp;Humidity;BMP_temperature;BMP_pressure;BME280_temperature;BME280_humidity;BME280_pressure;Samples;Min_cycle;Max_cycle;Signal;HPM_P1;HPM_P2
2021/12/29 00:01:24;;;;;;;1.13;0.20;;;9.20;99.90;;;;;;5116696;28;20460;-59
2021/12/29 00:03:52;;;;;;;0.33;0.10;;;9.20;99.90;;;;;;5117466;28;20539;-59
2021/12/29 00:06:21;;;;;;;0.50;0.20;;;9.30;99.90;;;;;;5118198;28;20452;-60
2021/12/29 00:08:48;;;;;;;1.90;0.20;;;9.20;99.90;;;;;;5118622;28;20477;-59
2021/12/29 00:11:15;;;;;;;0.27;0.10;;;9.20;99.90;;;;;;5118902;28;20867;-59
2021/12/29 00:13:42;;;;;;;0.83;0.10;;;9.10;99.90;;;;;;5119364;28;20484;-59
2021/12/29 00:16:10;;;;;;;0.50;0.20;;;9.10;99.90;;;;;;5119492;28;20840;-59
2021/12/29 00:18:37;;;;;;;0.63;0.10;;;9.30;99.90;;;;;;5119266;28;20460;-60
2021/12/29 00:21:06;;;;;;;0.60;0.20;;;9.30;99.90;;;;;;5119860;28;20468;-60
2021/12/29 00:23:34;;;;;;;0.40;0.23;;;9.30;99.90;;;;;;5119485;28;20447;-60
2021/12/29 00:26:01;;;;;;;3.70;0.10;;;9.30;99.90;;;;;;5117438;28;20543;-60
2021/12/29 00:28:28;;;;;;;0.40;0.10;;;9.30;99.90;;;;;;5118313;28;20457;-60
2021/12/29 00:30:55;;;;;;;0.30;0.10;;;9.20;99.90;;;;;;5119584;28;20887;-60
2021/12/29 00:33:22;;;;;;;0.83;0.10;;;9.20;99.90;;;;;;5119908;28;20489;-60
2021/12/29 00:35:49;;;;;;;0.43;0.10;;;9.30;99.90;;;;;;5119446;28;20939;-59
2021/12/29 00:38:16;;;;;;;0.73;0.10;;;9.30;99.90;;;;;;5118337;28;20821;-59
2021/12/29 00:40:45;;;;;;;0.30;0.10;;;9.30;99.90;;;;;;5118016;28;20527;-60
2021/12/29 00:43:12;;;;;;;2.20;0.10;;;9.20;99.90;;;;;;5118050;28;20567;-61
2021/12/29 00:45:40;;;;;;;0.40;0.10;;;9.20;99.90;;;;;;5116933;28;20558;-61
2021/12/29 00:48:13;;;;;;;0.30;0.10;;;9.20;99.90;;;;;;5117732;28;20441;-61
2021/12/29 00:50:41;;;;;;;0.40;0.10;;;9.20;99.90;;;;;;5117733;28;20856;-61
2021/12/29 00:53:08;;;;;;;0.83;0.10;;;9.20;99.90;;;;;;5118510;28;20444;-61
2021/12/29 00:55:36;;;;;;;0.30;0.10;;;9.20;99.90;;;;;;5119346;28;20528;-61
2021/12/29 00:58:07;;;;;;;0.30;0.10;;;9.10;99.90;;;;;;5118319;28;20445;-59
2021/12/29 01:00:37;;;;;;;0.60;0.27;;;9.20;99.90;;;;;;5117810;28;20546;-59
2021/12/29 01:03:07;;;;;;;0.40;0.10;;;9.10;99.90;;;;;;5117645;28;20448;-59
2021/12/29 01:05:34;;;;;;;0.30;0.10;;;9.00;99.90;;;;;;5117504;28;20804;-60
2021/12/29 01:08:01;;;;;;;2.17;0.20;;;9.00;99.90;;;;;;5117041;28;20809;-60
2021/12/29 01:10:28;;;;;;;0.40;0.20;;;9.00;99.90;;;;;;5117558;28;20512;-58
2021/12/29 01:12:58;;;;;;;0.20;0.10;;;9.00;99.90;;;;;;5117123;28;20543;-61
2021/12/29 01:15:32;;;;;;;0.87;0.10;;;9.00;99.90;;;;;;5117246;28;20440;-61
2021/12/29 01:18:00;;;;;;;0.50;0.20;;;9.00;99.90;;;;;;5117843;28;20448;-60
2021/12/29 01:20:29;;;;;;;0.40;0.10;;;8.90;99.90;;;;;;5118274;28;20803;-59
2021/12/29 01:22:58;;;;;;;5.73;0.20;;;8.90;99.90;;;;;;5118706;28;20449;-59
2021/12/29 01:25:25;;;;;;;0.50;0.10;;;8.90;99.90;;;;;;5118468;28;20489;-59
2021/12/29 01:27:52;;;;;;;0.40;0.10;;;8.90;99.90;;;;;;5118559;28;20551;-58
2021/12/29 01:30:19;;;;;;;0.30;0.10;;;8.90;99.90;;;;;;5117307;28;20567;-58
2021/12/29 01:32:51;;;;;;;0.83;0.10;;;8.90;99.90;;;;;;5117421;28;20819;-59
2021/12/29 01:35:18;;;;;;;2.30;0.10;;;8.90;99.90;;;;;;5117010;28;20548;-60
2021/12/29 01:37:48;;;;;;;0.30;0.10;;;8.90;99.90;;;;;;5117626;28;20488;-59
2021/12/29 01:40:19;;;;;;;0.30;0.10;;;8.90;99.90;;;;;;5117570;28;20935;-60
2021/12/29 01:42:46;;;;;;;1.63;0.13;;;8.90;99.90;;;;;;5118122;28;20488;-60
2021/12/29 01:45:14;;;;;;;0.30;0.10;;;8.90;99.90;;;;;;5117720;28;20838;-60
2021/12/29 01:47:41;;;;;;;0.30;0.10;;;8.90;99.90;;;;;;5117195;28;20478;-59
2021/12/29 01:50:11;;;;;;;2.20;0.10;;;8.90;99.90;;;;;;5116611;28;20520;-59
2021/12/29 01:52:40;;;;;;;1.27;0.20;;;8.80;99.90;;;;;;5117324;28;20488;-59
2021/12/29 01:55:11;;;;;;;0.40;0.10;;;8.80;99.90;;;;;;5116505;28;20441;-59
2021/12/29 01:57:38;;;;;;;0.37;0.10;;;8.80;99.90;;;;;;5117605;28;20543;-59
2021/12/29 02:00:08;;;;;;;0.60;0.13;;;8.80;99.90;;;;;;5117176;28;20464;-59
2021/12/29 02:02:35;;;;;;;0.30;0.13;;;9.00;99.90;;;;;;5117091;28;20539;-59
2021/12/29 02:05:02;;;;;;;0.70;0.10;;;8.90;99.90;;;;;;5116224;28;20819;-59
2021/12/29 02:07:31;;;;;;;0.40;0.17;;;8.80;99.90;;;;;;5117491;28;20547;-59
2021/12/29 02:09:58;;;;;;;0.90;0.10;;;8.80;99.90;;;;;;5117076;28;20477;-59
2021/12/29 02:12:25;;;;;;;0.60;0.10;;;8.90;99.90;;;;;;5118090;28;20543;-59
2021/12/29 02:14:52;;;;;;;0.20;0.10;;;8.90;99.90;;;;;;5118006;28;20515;-60
2021/12/29 02:17:19;;;;;;;0.30;0.10;;;8.80;99.90;;;;;;5117967;28;20955;-60
2021/12/29 02:19:47;;;;;;;0.30;0.10;;;8.90;99.90;;;;;;5117844;28;20483;-59
2021/12/29 02:22:32;;;;;;;0.20;0.00;;;8.90;99.90;;;;;;5116418;28;20918;-59
2021/12/29 02:25:19;;;;;;;0.30;0.10;;;9.00;99.90;;;;;;5116453;28;20448;-59
2021/12/29 02:27:47;;;;;;;0.30;0.10;;;9.10;99.90;;;;;;5116448;28;20992;-59
2021/12/29 02:30:16;;;;;;;0.60;0.10;;;9.10;99.90;;;;;;5116186;28;20515;-59
2021/12/29 02:32:44;;;;;;;0.20;0.10;;;9.20;99.90;;;;;;5116059;28;20457;-59
2021/12/29 02:35:12;;;;;;;0.30;0.10;;;9.20;99.90;;;;;;5114829;28;20491;-59
2021/12/29 02:37:41;;;;;;;0.30;0.10;;;9.20;99.90;;;;;;5114654;28;20479;-60
2021/12/29 02:40:09;;;;;;;0.30;0.10;;;9.30;99.90;;;;;;5114555;28;20739;-60
2021/12/29 02:42:40;;;;;;;0.20;0.10;;;9.30;99.90;;;;;;5114108;28;20495;-59
2021/12/29 02:45:09;;;;;;;0.40;0.10;;;9.30;99.90;;;;;;5115569;28;20872;-59
2021/12/29 02:47:36;;;;;;;0.20;0.10;;;9.30;99.90;;;;;;5114975;28;20492;-59
2021/12/29 02:50:04;;;;;;;0.30;0.10;;;9.30;99.90;;;;;;5115056;28;20515;-59
2021/12/29 02:52:31;;;;;;;0.20;0.10;;;9.30;99.90;;;;;;5114552;28;20564;-59
2021/12/29 02:54:59;;;;;;;0.30;0.10;;;9.30;99.90;;;;;;5114515;28;20480;-59
2021/12/29 02:57:26;;;;;;;0.30;0.10;;;9.40;99.90;;;;;;5114682;28;20487;-59
2021/12/29 02:59:53;;;;;;;0.20;0.07;;;9.40;99.90;;;;;;5114236;28;20522;-59
2021/12/29 03:02:20;;;;;;;0.20;0.10;;;9.40;99.90;;;;;;5115094;28;20975;-59
2021/12/29 03:04:48;;;;;;;0.30;0.10;;;9.30;99.90;;;;;;5114741;28;20452;-60
2021/12/29 03:07:15;;;;;;;0.20;0.10;;;9.40;99.90;;;;;;5115234;28;20461;-59
2021/12/29 03:09:42;;;;;;;0.30;0.10;;;9.40;99.90;;;;;;5115127;28;21130;-60
2021/12/29 03:12:10;;;;;;;0.50;0.10;;;9.40;99.90;;;;;;5115724;28;20460;-60
2021/12/29 03:14:37;;;;;;;0.40;0.10;;;9.40;99.90;;;;;;5115509;28;20541;-59
2021/12/29 03:17:05;;;;;;;0.20;0.10;;;9.40;99.90;;;;;;5115538;28;20535;-60
2021/12/29 03:19:31;;;;;;;0.53;0.10;;;9.50;99.90;;;;;;5116419;28;20539;-60
2021/12/29 03:21:58;;;;;;;0.20;0.10;;;9.50;99.90;;;;;;5116209;28;20488;-59
2021/12/29 03:24:25;;;;;;;0.47;0.10;;;9.50;99.90;;;;;;5116174;28;20935;-60
2021/12/29 03:26:52;;;;;;;0.33;0.10;;;9.60;99.90;;;;;;5115390;28;20575;-60
2021/12/29 03:29:20;;;;;;;0.77;0.10;;;9.60;99.90;;;;;;5114946;28;20444;-60
2021/12/29 03:31:47;;;;;;;0.30;0.10;;;9.50;99.90;;;;;;5115124;28;21025;-60
2021/12/29 03:34:15;;;;;;;0.30;0.10;;;9.60;99.90;;;;;;5115641;28;20905;-59
2021/12/29 03:36:42;;;;;;;0.40;0.10;;;9.60;99.90;;;;;;5115657;28;20832;-59
2021/12/29 03:39:10;;;;;;;0.43;0.10;;;9.60;99.90;;;;;;5115794;28;20569;-60
2021/12/29 03:41:38;;;;;;;0.30;0.10;;;9.60;99.90;;;;;;5115252;28;20452;-59
2021/12/29 03:44:05;;;;;;;0.30;0.10;;;9.60;99.90;;;;;;5115982;28;20492;-60
2021/12/29 03:46:33;;;;;;;0.57;0.10;;;9.50;99.90;;;;;;5115853;28;20457;-59
2021/12/29 03:49:01;;;;;;;0.30;0.10;;;9.60;99.90;;;;;;5116549;28;20463;-59
2021/12/29 03:51:28;;;;;;;0.30;0.10;;;9.60;99.90;;;;;;5114258;28;20575;-59
2021/12/29 03:53:55;;;;;;;0.20;0.10;;;9.50;99.90;;;;;;5115178;28;20536;-60
2021/12/29 03:56:21;;;;;;;0.30;0.10;;;9.50;99.90;;;;;;5115301;28;20551;-60
2021/12/29 03:58:49;;;;;;;4.57;0.10;;;9.60;99.90;;;;;;5115073;28;20843;-60
2021/12/29 04:01:18;;;;;;;0.30;0.10;;;9.50;99.90;;;;;;5115022;28;20476;-60
2021/12/29 04:03:47;;;;;;;0.20;0.10;;;9.50;99.90;;;;;;5115095;28;20520;-60
2021/12/29 04:06:17;;;;;;;0.30;0.10;;;9.60;99.90;;;;;;5115637;28;20552;-60
2021/12/29 04:08:43;;;;;;;0.20;0.10;;;9.60;99.90;;;;;;5115030;28;20880;-60
2021/12/29 04:11:10;;;;;;;0.20;0.10;;;9.50;99.90;;;;;;5112238;28;20634;-60
2021/12/29 04:13:37;;;;;;;1.07;0.10;;;9.40;99.90;;;;;;5112871;28;20550;-60
2021/12/29 04:16:06;;;;;;;0.20;0.10;;;9.30;99.90;;;;;;5113075;28;20947;-60
2021/12/29 04:18:33;;;;;;;0.20;0.10;;;9.30;99.90;;;;;;5112844;28;20914;-59
2021/12/29 04:21:03;;;;;;;0.20;0.10;;;9.20;99.90;;;;;;5112499;28;20448;-58
2021/12/29 04:23:32;;;;;;;0.30;0.10;;;9.20;99.90;;;;;;5112993;28;20930;-59
2021/12/29 04:26:01;;;;;;;0.20;0.00;;;9.10;99.90;;;;;;5114555;28;20531;-59
2021/12/29 04:28:28;;;;;;;0.20;0.10;;;9.00;99.90;;;;;;5118135;28;20795;-59
2021/12/29 04:30:57;;;;;;;0.30;0.10;;;9.00;99.90;;;;;;5118799;28;20494;-59
2021/12/29 04:33:26;;;;;;;0.20;0.10;;;8.90;99.90;;;;;;5119361;28;20919;-59
2021/12/29 04:35:53;;;;;;;3.03;0.10;;;8.80;99.90;;;;;;5119237;28;20543;-59
2021/12/29 04:38:24;;;;;;;0.83;0.10;;;8.70;99.90;;;;;;5119890;28;20471;-58
2021/12/29 04:40:51;;;;;;;1.23;0.10;;;8.70;99.90;;;;;;5118793;28;20492;-59
2021/12/29 04:43:19;;;;;;;0.23;0.07;;;8.70;99.90;;;;;;5119147;28;20539;-59
2021/12/29 04:45:47;;;;;;;0.30;0.10;;;8.70;99.90;;;;;;5119282;28;20820;-59
2021/12/29 04:48:15;;;;;;;0.30;0.10;;;8.60;99.90;;;;;;5119496;28;20472;-59
2021/12/29 04:50:49;;;;;;;0.20;0.00;;;8.60;99.90;;;;;;5118049;28;20537;-59
2021/12/29 04:53:16;;;;;;;0.30;0.10;;;8.60;99.90;;;;;;5116647;28;20505;-60
2021/12/29 04:55:45;;;;;;;0.53;0.10;;;8.60;99.90;;;;;;5116472;28;20497;-60
2021/12/29 04:58:13;;;;;;;0.27;0.10;;;8.60;99.90;;;;;;5116108;28;20765;-60
2021/12/29 05:00:40;;;;;;;0.30;0.10;;;8.50;99.90;;;;;;5116365;28;20536;-59
2021/12/29 05:03:07;;;;;;;0.33;0.10;;;8.50;99.90;;;;;;5116528;28;20523;-56
2021/12/29 05:05:52;;;;;;;0.30;0.10;;;8.50;99.90;;;;;;5117230;28;20809;-56
2021/12/29 05:08:25;;;;;;;0.20;0.10;;;8.60;99.90;;;;;;5119257;28;20529;-55
2021/12/29 05:10:54;;;;;;;0.27;0.10;;;8.70;99.90;;;;;;5117823;28;20472;-56
2021/12/29 05:13:21;;;;;;;0.30;0.10;;;8.70;99.90;;;;;;5119204;28;20505;-56
2021/12/29 05:15:48;;;;;;;0.20;0.10;;;8.70;99.90;;;;;;5118134;28;20539;-59
2021/12/29 05:18:16;;;;;;;0.20;0.10;;;8.70;99.90;;;;;;5117332;28;20523;-56
2021/12/29 05:20:43;;;;;;;0.50;0.10;;;8.60;99.90;;;;;;5117309;28;20927;-59
2021/12/29 05:23:10;;;;;;;0.80;0.13;;;8.50;99.90;;;;;;5117209;28;20895;-59
2021/12/29 05:25:37;;;;;;;0.30;0.10;;;8.50;99.90;;;;;;5116822;28;20455;-59
2021/12/29 05:28:06;;;;;;;0.50;0.10;;;8.50;99.90;;;;;;5116856;28;20890;-59
2021/12/29 05:30:33;;;;;;;0.40;0.10;;;8.50;99.90;;;;;;5116870;28;20527;-59
2021/12/29 05:33:00;;;;;;;0.33;0.10;;;8.50;99.90;;;;;;5117549;28;20531;-59
2021/12/29 05:35:30;;;;;;;0.30;0.10;;;8.50;99.90;;;;;;5117037;28;20491;-59
2021/12/29 05:37:59;;;;;;;0.70;0.10;;;8.50;99.90;;;;;;5116654;28;20472;-59
2021/12/29 05:40:27;;;;;;;1.40;0.10;;;8.50;99.90;;;;;;5117611;28;21053;-60
2021/12/29 05:42:55;;;;;;;0.30;0.10;;;8.50;99.90;;;;;;5116410;28;20444;-59
2021/12/29 05:45:25;;;;;;;0.40;0.10;;;8.50;99.90;;;;;;5116219;28;20452;-59
2021/12/29 05:47:53;;;;;;;1.23;0.10;;;8.50;99.90;;;;;;5116439;28;20484;-59
2021/12/29 05:50:22;;;;;;;0.30;0.10;;;8.50;99.90;;;;;;5118175;28;20480;-59
2021/12/29 05:52:49;;;;;;;0.50;0.10;;;8.40;99.90;;;;;;5116573;28;20575;-59
2021/12/29 05:55:17;;;;;;;0.30;0.10;;;8.50;99.90;;;;;;5117615;28;20524;-59
2021/12/29 05:57:44;;;;;;;1.73;0.20;;;8.50;99.90;;;;;;5117854;28;20543;-58
2021/12/29 06:00:13;;;;;;;0.30;0.10;;;8.50;99.90;;;;;;5118360;28;20533;-60
2021/12/29 06:02:42;;;;;;;0.40;0.10;;;8.50;99.90;;;;;;5117040;28;20823;-59
2021/12/29 06:05:10;;;;;;;0.33;0.10;;;8.50;99.90;;;;;;5115450;28;20704;-58
2021/12/29 06:07:38;;;;;;;0.30;0.10;;;8.60;99.90;;;;;;5114895;28;20483;-56
2021/12/29 06:10:08;;;;;;;0.30;0.10;;;8.70;99.90;;;;;;5114956;28;20539;-55
2021/12/29 06:12:36;;;;;;;0.50;0.20;;;8.70;99.90;;;;;;5115389;28;20539;-55
2021/12/29 06:15:03;;;;;;;3.40;0.20;;;8.70;99.90;;;;;;5114937;28;20667;-55
2021/12/29 06:17:33;;;;;;;0.70;0.13;;;8.60;99.90;;;;;;5115421;28;20800;-53
2021/12/29 06:20:01;;;;;;;0.30;0.10;;;8.60;99.90;;;;;;5117082;28;20498;-56
2021/12/29 06:22:28;;;;;;;0.60;0.20;;;8.50;99.90;;;;;;5117130;28;20543;-55
2021/12/29 06:24:55;;;;;;;1.50;0.20;;;8.50;99.90;;;;;;5116809;28;20491;-55
2021/12/29 06:27:23;;;;;;;0.50;0.20;;;8.40;99.90;;;;;;5117116;28;20509;-57
2021/12/29 06:29:51;;;;;;;0.50;0.20;;;8.40;99.90;;;;;;5117358;28;20907;-52
2021/12/29 06:32:18;;;;;;;0.50;0.20;;;8.40;99.90;;;;;;5116899;28;20790;-55
2021/12/29 06:34:46;;;;;;;5.87;0.30;;;8.30;99.90;;;;;;5117289;28;20535;-55
2021/12/29 06:37:14;;;;;;;0.50;0.20;;;8.40;99.90;;;;;;5116345;28;20555;-56
2021/12/29 06:39:42;;;;;;;0.40;0.10;;;8.40;99.90;;;;;;5116587;28;20519;-54
2021/12/29 06:42:10;;;;;;;0.40;0.10;;;8.50;99.90;;;;;;5116451;28;20473;-56
2021/12/29 06:44:37;;;;;;;0.30;0.20;;;8.50;99.90;;;;;;5116065;28;20444;-55
2021/12/29 06:47:05;;;;;;;0.50;0.20;;;8.50;99.90;;;;;;5116570;28;20547;-53
2021/12/29 06:49:32;;;;;;;0.40;0.10;;;8.60;99.90;;;;;;5115624;28;20540;-56
2021/12/29 06:52:00;;;;;;;1.40;0.20;;;8.60;99.90;;;;;;5116967;28;20519;-56
2021/12/29 06:54:28;;;;;;;0.33;0.10;;;8.50;99.90;;;;;;5116538;28;20449;-56
2021/12/29 06:56:55;;;;;;;0.40;0.10;;;8.50;99.90;;;;;;5116714;28;20541;-58
2021/12/29 06:59:22;;;;;;;0.77;0.10;;;8.50;99.90;;;;;;5115557;28;20481;-54
2021/12/29 07:01:49;;;;;;;0.30;0.10;;;8.50;99.90;;;;;;5115515;28;20979;-57
2021/12/29 07:04:19;;;;;;;0.40;0.10;;;8.50;99.90;;;;;;5116439;28;20811;-54
2021/12/29 07:06:46;;;;;;;0.40;0.10;;;8.60;99.90;;;;;;5114291;28;20547;-53
2021/12/29 07:09:13;;;;;;;0.30;0.10;;;8.60;99.90;;;;;;5115470;28;20465;-55
2021/12/29 07:11:41;;;;;;;0.30;0.10;;;8.60;99.90;;;;;;5116007;28;20520;-55
2021/12/29 07:14:09;;;;;;;0.30;0.17;;;8.60;99.90;;;;;;5115179;28;20441;-52
2021/12/29 07:16:37;;;;;;;0.30;0.10;;;8.70;99.90;;;;;;5114752;28;20539;-49
2021/12/29 07:19:04;;;;;;;0.30;0.10;;;8.70;99.90;;;;;;5112848;28;20432;-55
2021/12/29 07:21:32;;;;;;;0.33;0.10;;;8.60;99.90;;;;;;5113877;28;20487;-53
2021/12/29 07:23:59;;;;;;;2.10;0.10;;;8.70;99.90;;;;;;5114446;28;20535;-54
2021/12/29 07:26:26;;;;;;;1.03;0.20;;;8.70;99.90;;;;;;5113553;28;20448;-54
2021/12/29 07:28:56;;;;;;;0.60;0.10;;;8.70;99.90;;;;;;5112336;28;20524;-50
2021/12/29 07:31:23;;;;;;;0.50;0.13;;;8.60;99.90;;;;;;5112289;28;20957;-51
2021/12/29 07:33:50;;;;;;;0.40;0.10;;;8.60;99.90;;;;;;5112316;28;20904;-54
2021/12/29 07:36:17;;;;;;;0.40;0.13;;;8.60;99.90;;;;;;5112684;28;20444;-55
2021/12/29 07:38:45;;;;;;;0.67;0.10;;;8.60;99.90;;;;;;5113475;28;20445;-50
2021/12/29 07:41:12;;;;;;;0.40;0.10;;;8.60;99.90;;;;;;5113866;28;20483;-52
2021/12/29 07:43:39;;;;;;;0.50;0.10;;;8.70;99.90;;;;;;5090232;28;20528;-54
2021/12/29 07:46:08;;;;;;;0.30;0.10;;;8.80;99.90;;;;;;5092726;28;20953;-54
2021/12/29 07:48:36;;;;;;;0.50;0.13;;;9.00;99.90;;;;;;5085146;28;20447;-52
2021/12/29 07:51:06;;;;;;;0.30;0.10;;;9.00;99.90;;;;;;5090891;28;20822;-53
2021/12/29 07:53:34;;;;;;;0.97;0.20;;;9.10;99.90;;;;;;5091225;28;20946;-51
2021/12/29 07:56:01;;;;;;;3.07;0.20;;;9.30;99.90;;;;;;5091048;28;20486;-53
2021/12/29 07:58:28;;;;;;;1.07;0.20;;;9.30;99.90;;;;;;5092606;28;20810;-49
2021/12/29 08:00:55;;;;;;;0.50;0.10;;;9.40;99.90;;;;;;5093071;28;20839;-50
2021/12/29 08:03:24;;;;;;;0.40;0.20;;;9.40;99.90;;;;;;5096045;28;20919;-52
2021/12/29 08:05:51;;;;;;;0.30;0.10;;;9.20;99.90;;;;;;5094028;28;20453;-50
2021/12/29 08:08:18;;;;;;;0.40;0.10;;;9.20;99.90;;;;;;5085733;28;20456;-51
2021/12/29 08:10:45;;;;;;;0.30;0.13;;;9.10;99.90;;;;;;5095682;28;20520;-53
2021/12/29 08:13:11;;;;;;;0.50;0.20;;;8.90;99.90;;;;;;5088182;28;20568;-54
2021/12/29 08:15:38;;;;;;;0.20;0.10;;;8.80;99.90;;;;;;5090397;28;20451;-54
2021/12/29 08:18:07;;;;;;;2.50;0.40;;;8.70;99.90;;;;;;5085464;28;20469;-55
2021/12/29 08:20:36;;;;;;;1.07;0.23;;;8.70;99.90;;;;;;5084305;28;20465;-53
2021/12/29 08:23:03;;;;;;;0.30;0.10;;;8.60;99.90;;;;;;5093305;28;20730;-54
2021/12/29 08:25:30;;;;;;;0.60;0.20;;;8.60;99.90;;;;;;5088748;28;20433;-54
2021/12/29 08:27:57;;;;;;;0.30;0.10;;;8.70;99.90;;;;;;5095799;28;20526;-53
2021/12/29 08:30:25;;;;;;;0.30;0.10;;;9.00;99.90;;;;;;5084842;28;20846;-53
2021/12/29 08:32:52;;;;;;;0.30;0.20;;;9.20;99.90;;;;;;5091430;28;20562;-53
2021/12/29 08:35:20;;;;;;;0.40;0.10;;;9.20;99.90;;;;;;5077898;28;20544;-49
2021/12/29 08:37:49;;;;;;;2.28;0.20;;;9.10;99.90;;;;;;5089227;28;20459;-52
2021/12/29 08:40:16;;;;;;;0.30;0.20;;;9.20;99.90;;;;;;5081786;28;20410;-53
2021/12/29 08:42:44;;;;;;;0.50;0.20;;;9.10;99.90;;;;;;5076911;28;20875;-53
2021/12/29 08:45:13;;;;;;;0.50;0.20;;;9.00;99.90;;;;;;5078011;28;20432;-54
2021/12/29 08:47:40;;;;;;;0.80;0.20;;;8.90;99.90;;;;;;5080416;28;20915;-58
2021/12/29 08:50:10;;;;;;;0.80;0.30;;;8.80;99.90;;;;;;5091124;28;21068;-55
2021/12/29 08:52:38;;;;;;;1.30;0.30;;;8.70;99.90;;;;;;5088831;28;20462;-57
2021/12/29 08:55:09;;;;;;;0.50;0.20;;;8.70;99.90;;;;;;5090319;28;20465;-55
2021/12/29 08:57:36;;;;;;;1.20;0.25;;;8.60;99.90;;;;;;5086880;28;20909;-58
2021/12/29 09:00:06;;;;;;;1.10;0.20;;;8.60;99.90;;;;;;5089859;28;20455;-51
2021/12/29 09:02:33;;;;;;;0.50;0.20;;;8.60;99.90;;;;;;5094435;28;21148;-53
2021/12/29 09:04:59;;;;;;;0.40;0.20;;;8.70;99.90;;;;;;5095283;28;20571;-55
2021/12/29 09:07:26;;;;;;;0.73;0.20;;;8.70;99.90;;;;;;5105289;28;20524;-55
2021/12/29 09:09:53;;;;;;;1.30;0.30;;;8.80;99.90;;;;;;5095000;28;20513;-54
2021/12/29 09:12:21;;;;;;;0.50;0.20;;;8.80;99.90;;;;;;5095520;28;20528;-56
2021/12/29 09:14:49;;;;;;;0.70;0.30;;;8.80;99.90;;;;;;5094886;28;20501;-57
2021/12/29 09:17:16;;;;;;;0.50;0.30;;;8.90;99.90;;;;;;5092815;28;20536;-54
2021/12/29 09:19:44;;;;;;;0.90;0.30;;;8.90;99.90;;;;;;5093441;28;20511;-56
2021/12/29 09:22:12;;;;;;;0.60;0.30;;;9.00;99.90;;;;;;5094903;28;20422;-56
2021/12/29 09:24:40;;;;;;;0.50;0.30;;;9.00;99.90;;;;;;5094796;28;20432;-54
2021/12/29 09:27:07;;;;;;;0.60;0.20;;;9.00;99.90;;;;;;5094052;28;21007;-56
2021/12/29 09:29:35;;;;;;;0.60;0.30;;;9.10;99.90;;;;;;5093540;28;20868;-56
2021/12/29 09:32:06;;;;;;;0.55;0.20;;;9.10;99.90;;;;;;5093185;28;20627;-55
2021/12/29 09:34:34;;;;;;;0.40;0.20;;;9.10;99.90;;;;;;5094716;28;20526;-55
2021/12/29 09:37:02;;;;;;;0.40;0.20;;;9.20;99.90;;;;;;5095025;28;20820;-56
2021/12/29 09:39:29;;;;;;;0.80;0.20;;;9.20;99.90;;;;;;5093110;28;20497;-56
2021/12/29 09:41:56;;;;;;;1.55;0.20;;;9.20;99.90;;;;;;5095159;28;20805;-53
2021/12/29 09:44:23;;;;;;;0.70;0.30;;;9.20;99.90;;;;;;5094960;28;20829;-55
2021/12/29 09:46:54;;;;;;;0.60;0.20;;;9.20;99.90;;;;;;5094882;28;20902;-56
2021/12/29 09:49:21;;;;;;;0.60;0.25;;;9.20;99.90;;;;;;5092817;28;20788;-52
2021/12/29 09:51:50;;;;;;;0.80;0.20;;;9.30;99.90;;;;;;5091987;28;20490;-51
2021/12/29 09:54:17;;;;;;;0.40;0.20;;;9.40;99.90;;;;;;5093465;28;20800;-56
2021/12/29 09:56:44;;;;;;;0.60;0.28;;;9.50;99.90;;;;;;5092924;28;20714;-54
2021/12/29 09:59:14;;;;;;;0.50;0.20;;;9.50;99.90;;;;;;5094399;28;20513;-57
2021/12/29 10:01:42;;;;;;;1.08;0.50;;;9.50;99.90;;;;;;5094571;28;20776;-56
2021/12/29 10:04:13;;;;;;;0.80;0.30;;;9.60;99.90;;;;;;5094391;28;21023;-56
2021/12/29 10:06:40;;;;;;;0.70;0.30;;;9.60;99.90;;;;;;5094835;28;20487;-54
2021/12/29 10:09:13;;;;;;;0.50;0.20;;;9.60;99.90;;;;;;5093689;28;20777;-55
2021/12/29 10:11:40;;;;;;;0.60;0.30;;;9.70;99.90;;;;;;5094558;28;20716;-55
2021/12/29 10:14:09;;;;;;;0.50;0.30;;;9.60;99.90;;;;;;5093438;28;21875;-57
2021/12/29 10:16:37;;;;;;;0.40;0.30;;;9.70;99.90;;;;;;5092563;28;20482;-57
2021/12/29 10:19:07;;;;;;;0.80;0.30;;;9.70;99.90;;;;;;5073394;28;20510;-52
2021/12/29 10:21:37;;;;;;;0.80;0.20;;;9.70;99.90;;;;;;5080527;28;20454;-54
2021/12/29 10:24:05;;;;;;;0.60;0.30;;;9.70;99.90;;;;;;5092456;28;20503;-54
2021/12/29 10:26:34;;;;;;;0.50;0.30;;;9.70;99.90;;;;;;5093030;28;20928;-56
2021/12/29 10:29:03;;;;;;;0.60;0.30;;;9.60;99.90;;;;;;5091570;28;20528;-54
2021/12/29 10:31:33;;;;;;;0.50;0.20;;;9.70;99.90;;;;;;5093215;28;20437;-54
2021/12/29 10:34:02;;;;;;;0.60;0.30;;;9.70;99.90;;;;;;5094498;28;20494;-56
2021/12/29 10:36:31;;;;;;;1.00;0.30;;;9.70;99.90;;;;;;5094595;28;20812;-58
2021/12/29 10:39:05;;;;;;;2.00;0.30;;;9.70;99.90;;;;;;5094268;28;20988;-54
2021/12/29 10:41:43;;;;;;;0.50;0.30;;;9.80;99.90;;;;;;5092141;28;20516;-58
2021/12/29 10:44:10;;;;;;;0.70;0.20;;;9.90;99.90;;;;;;5092905;28;20508;-56
2021/12/29 10:46:37;;;;;;;0.88;0.30;;;9.90;99.90;;;;;;5092870;28;20467;-54
2021/12/29 10:49:07;;;;;;;0.55;0.28;;;10.00;99.90;;;;;;5092261;28;20818;-54
2021/12/29 10:51:35;;;;;;;0.40;0.25;;;9.90;99.90;;;;;;5092437;28;20864;-57
2021/12/29 10:54:12;;;;;;;0.80;0.20;;;9.90;99.90;;;;;;5093376;28;20871;-54
2021/12/29 10:56:42;;;;;;;1.30;0.60;;;9.80;99.90;;;;;;5093895;28;20879;-53
2021/12/29 10:59:18;;;;;;;0.70;0.30;;;9.80;99.90;;;;;;5091275;28;20493;-58
2021/12/29 11:01:45;;;;;;;0.60;0.30;;;9.80;99.90;;;;;;5091696;28;20950;-55
2021/12/29 11:04:13;;;;;;;0.67;0.30;;;9.80;99.90;;;;;;5091850;28;20414;-57
2021/12/29 11:06:43;;;;;;;1.10;0.30;;;9.90;99.90;;;;;;5091964;28;20434;-56
2021/12/29 11:09:13;;;;;;;0.50;0.30;;;10.00;99.90;;;;;;5090346;28;21155;-56
2021/12/29 11:11:44;;;;;;;0.80;0.30;;;10.00;99.90;;;;;;5090999;28;20437;-54
2021/12/29 11:14:16;;;;;;;1.70;0.30;;;10.10;99.90;;;;;;5090349;28;20521;-56
2021/12/29 11:16:45;;;;;;;0.50;0.20;;;10.40;99.90;;;;;;5089994;28;20876;-55
2021/12/29 11:19:12;;;;;;;1.17;0.40;;;10.40;99.90;;;;;;5090426;28;20479;-54
2021/12/29 11:21:42;;;;;;;1.50;1.27;;;10.30;99.90;;;;;;5092407;28;20491;-58
2021/12/29 11:24:16;;;;;;;4.93;1.70;;;10.10;99.90;;;;;;5091739;28;20449;-56
2021/12/29 11:26:44;;;;;;;4.53;1.10;;;10.10;99.90;;;;;;5090885;28;20476;-58
2021/12/29 11:29:14;;;;;;;5.53;2.10;;;10.00;99.90;;;;;;5091045;28;20493;-56
2021/12/29 11:31:43;;;;;;;0.50;0.30;;;10.10;99.90;;;;;;5091313;28;20520;-56
2021/12/29 11:34:20;;;;;;;2.20;0.30;;;10.10;99.90;;;;;;5092791;28;20462;-56
2021/12/29 11:37:01;;;;;;;1.00;0.30;;;10.10;99.90;;;;;;5095886;28;20430;-53
2021/12/29 11:39:31;;;;;;;0.50;0.30;;;10.10;99.90;;;;;;5096785;28;20508;-56
2021/12/29 11:41:58;;;;;;;0.70;0.20;;;10.20;99.90;;;;;;5096274;28;20445;-57
2021/12/29 11:44:26;;;;;;;1.20;0.30;;;10.20;99.90;;;;;;5083035;28;20795;-53
2021/12/29 11:46:55;;;;;;;0.60;0.30;;;10.20;99.90;;;;;;5082750;28;21231;-58
2021/12/29 11:49:23;;;;;;;0.90;0.20;;;10.20;99.90;;;;;;5095936;28;20833;-55
2021/12/29 11:51:56;;;;;;;0.40;0.20;;;10.20;99.90;;;;;;5098492;28;20778;-56
2021/12/29 11:54:35;;;;;;;0.47;0.20;;;10.20;99.90;;;;;;5100200;28;20562;-53
2021/12/29 11:57:11;;;;;;;0.50;0.20;;;10.20;99.90;;;;;;5100302;28;20528;-55
2021/12/29 11:59:38;;;;;;;1.10;0.20;;;10.20;99.90;;;;;;5100753;28;20426;-56
2021/12/29 12:02:06;;;;;;;0.50;0.20;;;10.20;99.90;;;;;;5100128;28;20516;-57
2021/12/29 12:04:33;;;;;;;0.50;0.20;;;10.30;99.90;;;;;;5098448;28;20422;-56
2021/12/29 12:07:03;;;;;;;0.57;0.27;;;10.30;99.90;;;;;;5099035;28;20597;-54
2021/12/29 12:09:45;;;;;;;1.10;0.30;;;10.30;99.90;;;;;;5099366;28;20769;-56
2021/12/29 12:12:13;;;;;;;0.50;0.20;;;10.40;99.90;;;;;;5099250;28;20453;-55
2021/12/29 12:14:46;;;;;;;0.60;0.20;;;10.40;99.90;;;;;;5100072;28;20461;-55
2021/12/29 12:17:15;;;;;;;0.70;0.20;;;10.60;99.90;;;;;;5098439;28;20516;-57
2021/12/29 12:19:43;;;;;;;1.40;0.20;;;10.70;99.90;;;;;;5098018;28;20409;-56
2021/12/29 12:22:14;;;;;;;0.80;0.20;;;10.80;99.90;;;;;;5097818;28;20433;-57
2021/12/29 12:24:56;;;;;;;0.70;0.30;;;10.70;99.90;;;;;;5097978;28;20573;-56
2021/12/29 12:27:27;;;;;;;0.90;0.30;;;10.60;99.90;;;;;;5096458;28;20430;-56
2021/12/29 12:30:02;;;;;;;0.60;0.20;;;10.60;99.90;;;;;;5096649;28;20469;-56
2021/12/29 12:32:39;;;;;;;2.13;0.20;;;10.60;99.90;;;;;;5096442;28;20480;-56
2021/12/29 12:35:06;;;;;;;2.73;0.30;;;10.60;99.90;;;;;;5097676;28;20865;-57
2021/12/29 12:37:45;;;;;;;0.47;0.20;;;10.60;99.90;;;;;;5098363;28;20519;-56
2021/12/29 12:40:25;;;;;;;0.40;0.20;;;10.70;99.90;;;;;;5100212;28;20441;-56
2021/12/29 12:43:01;;;;;;;0.30;0.20;;;10.70;99.90;;;;;;5098914;28;20806;-55
2021/12/29 12:45:32;;;;;;;0.37;0.20;;;10.70;99.90;;;;;;5101190;28;20429;-57
2021/12/29 12:48:04;;;;;;;0.40;0.10;;;10.70;99.90;;;;;;5096838;28;20935;-55
2021/12/29 12:50:31;;;;;;;2.37;0.57;;;10.70;99.90;;;;;;5096267;28;20490;-58
2021/12/29 12:52:58;;;;;;;1.10;0.50;;;10.70;99.90;;;;;;5096019;28;20532;-56
2021/12/29 12:55:29;;;;;;;2.33;0.30;;;10.70;99.90;;;;;;5096665;28;20461;-56
2021/12/29 12:58:10;;;;;;;0.50;0.23;;;10.70;99.90;;;;;;5095282;28;20528;-55
2021/12/29 13:00:43;;;;;;;1.27;0.20;;;10.70;99.90;;;;;;5074944;28;20474;-56
2021/12/29 13:03:14;;;;;;;0.40;0.20;;;10.60;99.90;;;;;;5072159;28;20470;-55